Sleepy Valley, California
Current Conditions -  °F | °C
As of 3:51 PM on Sunday 28 Dec 2014 (Local Time) from KVNY Reporting Station
Few Clouds Few Clouds  
Wind Chill: 57°   Ceiling: Unl
Heat Index: 57°   Visibility: 10mi
Dew Point: 32°   Wind: 8mph
Humidity: 39%   Direction: 180°S
Pressure: 30.15"   Gusts: NA
Location:  34.446°N, 118.517°W
Report Text: KVNY 282351Z 18007KT 10SM FEW270 14/00 A3015 RMK AO2 SLP211 T01390000 10156 20083 55010
Loading
Personal Weather Stations






























Interactive Weather Map New forecast layout! Learn more

10-Day Weather Forecast

Advertisements
Track Severe Weather on mobile